N709LP KPWM-KAGC
Flight info
| Callsign | N709LP |
|---|---|
| Flight time | 1h 35m |
| Altitude | 40000 |
| Route | HSKEL3 BAUER HNK REC |
| Aircraft | CL60/M-SBDE1E2E3FGHIJ1J4J5J7M3RWXYZ/LB1V1D1 |
Departure
| Time | 2026-05-06 02:36 |
|---|---|
| Airport | Portland International Jetport (KPWM) |
Arrival
| Time | 2026-05-06 04:11 |
|---|---|
| Airport | Allegheny County Airport (KAGC) |
| Time | Latitude | Longitude | Altitude | Speed | Heading |
|---|---|---|---|---|---|
| 2026-05-06 02:06 | 43.64924 | -70.30836 | 57 ft | 0 kts | 359° |
| 2026-05-06 02:29 | 43.64935 | -70.30835 | 57 ft | 6 kts | 9° |
| 2026-05-06 02:29 | 43.64957 | -70.30753 | 54 ft | 12 kts | 90° |
| 2026-05-06 02:30 | 43.64919 | -70.30712 | 52 ft | 9 kts | 179° |
| 2026-05-06 02:30 | 43.64840 | -70.30709 | 52 ft | 12 kts | 178° |
| 2026-05-06 02:30 | 43.64741 | -70.30705 | 52 ft | 15 kts | 178° |
| 2026-05-06 02:30 | 43.64634 | -70.30704 | 52 ft | 16 kts | 181° |
| 2026-05-06 02:31 | 43.64565 | -70.30656 | 50 ft | 13 kts | 96° |
| 2026-05-06 02:31 | 43.64555 | -70.30506 | 47 ft | 12 kts | 95° |
| 2026-05-06 02:31 | 43.64565 | -70.30393 | 43 ft | 15 kts | 74° |
| 2026-05-06 02:31 | 43.64586 | -70.30222 | 37 ft | 20 kts | 95° |
| 2026-05-06 02:32 | 43.64575 | -70.30067 | 33 ft | 10 kts | 96° |
| 2026-05-06 02:32 | 43.64566 | -70.29951 | 29 ft | 10 kts | 107° |
| 2026-05-06 02:32 | 43.64505 | -70.29918 | 28 ft | 2 kts | 178° |
| 2026-05-06 02:34 | 43.64500 | -70.29918 | 29 ft | 3 kts | 179° |
| 2026-05-06 02:34 | 43.64446 | -70.29916 | 30 ft | 9 kts | 180° |
| 2026-05-06 02:35 | 43.64407 | -70.29965 | 32 ft | 10 kts | 274° |
| 2026-05-06 02:35 | 43.64420 | -70.30154 | 37 ft | 39 kts | 275° |
| 2026-05-06 02:35 | 43.64477 | -70.31002 | 61 ft | 137 kts | 276° |
| 2026-05-06 02:35 | 43.64616 | -70.32523 | 637 ft | 172 kts | 276° |
| 2026-05-06 02:36 | 43.64797 | -70.34139 | 1904 ft | 174 kts | 274° |
| 2026-05-06 02:36 | 43.65047 | -70.35512 | 3498 ft | 152 kts | 277° |
| 2026-05-06 02:36 | 43.65292 | -70.36996 | 4373 ft | 175 kts | 276° |
| 2026-05-06 02:36 | 43.65540 | -70.38686 | 5411 ft | 189 kts | 276° |
| 2026-05-06 02:37 | 43.65791 | -70.40460 | 5899 ft | 191 kts | 276° |
| 2026-05-06 02:37 | 43.66056 | -70.42349 | 6195 ft | 214 kts | 276° |
| 2026-05-06 02:37 | 43.66334 | -70.44460 | 7155 ft | 236 kts | 276° |
| 2026-05-06 02:37 | 43.66622 | -70.46699 | 8395 ft | 246 kts | 276° |
| 2026-05-06 02:38 | 43.66912 | -70.49000 | 9669 ft | 253 kts | 276° |
| 2026-05-06 02:38 | 43.67211 | -70.51434 | 10767 ft | 266 kts | 276° |
| 2026-05-06 02:38 | 43.67518 | -70.54031 | 11532 ft | 289 kts | 276° |
| 2026-05-06 02:38 | 43.67841 | -70.56820 | 12503 ft | 302 kts | 277° |
| 2026-05-06 02:39 | 43.68252 | -70.59695 | 13522 ft | 313 kts | 281° |
| 2026-05-06 02:39 | 43.68831 | -70.62618 | 14542 ft | 320 kts | 282° |
| 2026-05-06 02:39 | 43.69431 | -70.65582 | 15582 ft | 325 kts | 282° |
| 2026-05-06 02:39 | 43.70012 | -70.68475 | 16502 ft | 331 kts | 282° |
| 2026-05-06 02:40 | 43.70629 | -70.71566 | 17481 ft | 335 kts | 282° |
| 2026-05-06 02:40 | 43.71238 | -70.74635 | 18418 ft | 338 kts | 282° |
| 2026-05-06 02:40 | 43.71849 | -70.77818 | 19303 ft | 342 kts | 279° |
| 2026-05-06 02:40 | 43.71981 | -70.81025 | 20174 ft | 339 kts | 262° |
| 2026-05-06 02:41 | 43.71338 | -70.84171 | 20961 ft | 342 kts | 249° |
| 2026-05-06 02:41 | 43.70469 | -70.87235 | 21662 ft | 349 kts | 249° |
| 2026-05-06 02:41 | 43.69581 | -70.90387 | 22405 ft | 354 kts | 249° |
| 2026-05-06 02:41 | 43.68679 | -70.93573 | 23138 ft | 358 kts | 249° |
| 2026-05-06 02:42 | 43.67768 | -70.96777 | 23925 ft | 361 kts | 249° |
| 2026-05-06 02:42 | 43.66842 | -71.00030 | 24647 ft | 365 kts | 250° |
| 2026-05-06 02:42 | 43.65906 | -71.03301 | 25356 ft | 369 kts | 250° |
| 2026-05-06 02:42 | 43.65054 | -71.06664 | 26094 ft | 370 kts | 255° |
| 2026-05-06 02:43 | 43.64420 | -71.10153 | 26824 ft | 372 kts | 257° |
| 2026-05-06 02:43 | 43.63811 | -71.13663 | 27455 ft | 375 kts | 258° |
| 2026-05-06 02:43 | 43.63197 | -71.17171 | 28141 ft | 375 kts | 257° |
| 2026-05-06 02:43 | 43.62571 | -71.20717 | 28762 ft | 377 kts | 257° |
| 2026-05-06 02:44 | 43.61944 | -71.24259 | 29314 ft | 380 kts | 257° |
| 2026-05-06 02:44 | 43.61308 | -71.27836 | 29770 ft | 384 kts | 257° |
| 2026-05-06 02:44 | 43.60670 | -71.31406 | 30244 ft | 387 kts | 258° |
| 2026-05-06 02:44 | 43.60020 | -71.35025 | 30784 ft | 387 kts | 258° |
| 2026-05-06 02:45 | 43.59372 | -71.38624 | 31216 ft | 390 kts | 257° |
| 2026-05-06 02:45 | 43.58710 | -71.42290 | 31634 ft | 392 kts | 257° |
| 2026-05-06 02:45 | 43.58051 | -71.45921 | 31985 ft | 395 kts | 258° |
| 2026-05-06 02:45 | 43.57378 | -71.49621 | 32313 ft | 397 kts | 258° |
| 2026-05-06 02:46 | 43.56701 | -71.53337 | 32618 ft | 400 kts | 258° |
| 2026-05-06 02:46 | 43.56023 | -71.57038 | 32950 ft | 401 kts | 257° |
| 2026-05-06 02:46 | 43.55332 | -71.60809 | 33221 ft | 403 kts | 258° |
| 2026-05-06 02:46 | 43.54639 | -71.64572 | 33521 ft | 404 kts | 257° |
| 2026-05-06 02:47 | 43.54055 | -71.67741 | 33763 ft | 405 kts | 256° |
| 2026-05-06 02:47 | 43.53365 | -71.71479 | 34129 ft | 404 kts | 256° |
| 2026-05-06 02:47 | 43.52668 | -71.75238 | 34504 ft | 403 kts | 256° |
| 2026-05-06 02:47 | 43.51970 | -71.78992 | 34881 ft | 401 kts | 257° |
| 2026-05-06 02:48 | 43.51284 | -71.82681 | 35159 ft | 401 kts | 257° |
| 2026-05-06 02:48 | 43.50586 | -71.86415 | 35412 ft | 401 kts | 257° |
| 2026-05-06 02:48 | 43.49882 | -71.90177 | 35662 ft | 402 kts | 256° |
| 2026-05-06 02:48 | 43.49192 | -71.93858 | 35869 ft | 402 kts | 256° |
| 2026-05-06 02:49 | 43.48484 | -71.97626 | 36063 ft | 404 kts | 257° |
| 2026-05-06 02:49 | 43.47787 | -72.01331 | 36255 ft | 404 kts | 257° |
| 2026-05-06 02:49 | 43.47068 | -72.05142 | 36497 ft | 404 kts | 257° |
| 2026-05-06 02:49 | 43.46356 | -72.08913 | 36722 ft | 404 kts | 257° |
| 2026-05-06 02:50 | 43.45652 | -72.12624 | 36948 ft | 404 kts | 257° |
| 2026-05-06 02:50 | 43.44946 | -72.16350 | 37153 ft | 405 kts | 257° |
| 2026-05-06 02:50 | 43.44226 | -72.20129 | 37406 ft | 404 kts | 257° |
| 2026-05-06 02:50 | 43.43515 | -72.23861 | 37635 ft | 405 kts | 257° |
| 2026-05-06 02:51 | 43.42791 | -72.27656 | 37848 ft | 405 kts | 257° |
| 2026-05-06 02:51 | 43.42077 | -72.31386 | 38031 ft | 405 kts | 258° |
| 2026-05-06 02:51 | 43.41362 | -72.35115 | 38187 ft | 405 kts | 257° |
| 2026-05-06 02:51 | 43.40641 | -72.38871 | 38397 ft | 404 kts | 258° |
| 2026-05-06 02:52 | 43.39917 | -72.42628 | 38556 ft | 404 kts | 257° |
| 2026-05-06 02:52 | 43.39151 | -72.46311 | 38691 ft | 405 kts | 253° |
| 2026-05-06 02:52 | 43.37980 | -72.49898 | 38839 ft | 409 kts | 245° |
| 2026-05-06 02:52 | 43.36517 | -72.53257 | 38947 ft | 411 kts | 243° |
| 2026-05-06 02:53 | 43.35027 | -72.56607 | 39100 ft | 410 kts | 243° |
| 2026-05-06 02:53 | 43.33540 | -72.59951 | 39232 ft | 410 kts | 243° |
| 2026-05-06 02:53 | 43.32044 | -72.63309 | 39387 ft | 409 kts | 243° |
| 2026-05-06 02:53 | 43.30553 | -72.66649 | 39497 ft | 410 kts | 243° |
| 2026-05-06 02:54 | 43.29062 | -72.69984 | 39606 ft | 410 kts | 243° |
| 2026-05-06 02:54 | 43.26064 | -72.76677 | 39791 ft | 411 kts | 243° |
| 2026-05-06 02:55 | 43.23052 | -72.83382 | 39872 ft | 413 kts | 243° |
| 2026-05-06 02:55 | 43.20017 | -72.90120 | 39881 ft | 413 kts | 243° |
| 2026-05-06 02:56 | 43.16993 | -72.96815 | 39872 ft | 411 kts | 243° |
| 2026-05-06 02:56 | 43.13980 | -73.03471 | 39871 ft | 410 kts | 243° |
| 2026-05-06 02:57 | 43.10961 | -73.10120 | 39865 ft | 410 kts | 243° |
| 2026-05-06 02:57 | 43.07939 | -73.16766 | 39876 ft | 410 kts | 243° |
| 2026-05-06 02:58 | 43.04915 | -73.23401 | 39873 ft | 410 kts | 244° |
| 2026-05-06 02:58 | 43.01872 | -73.30058 | 39865 ft | 411 kts | 244° |
| 2026-05-06 02:59 | 42.98852 | -73.36654 | 39867 ft | 411 kts | 244° |
| 2026-05-06 02:59 | 42.95813 | -73.43272 | 39880 ft | 410 kts | 244° |
| 2026-05-06 03:00 | 42.92786 | -73.49854 | 39864 ft | 410 kts | 244° |
| 2026-05-06 03:00 | 42.89743 | -73.56453 | 39865 ft | 409 kts | 244° |
| 2026-05-06 03:01 | 42.86808 | -73.62808 | 39885 ft | 408 kts | 243° |
| 2026-05-06 03:01 | 42.83764 | -73.69379 | 39867 ft | 408 kts | 243° |
| 2026-05-06 03:02 | 42.80729 | -73.75919 | 39865 ft | 409 kts | 243° |
| 2026-05-06 03:02 | 42.77667 | -73.82500 | 39860 ft | 409 kts | 244° |
| 2026-05-06 03:03 | 42.74640 | -73.88991 | 39862 ft | 409 kts | 243° |
| 2026-05-06 03:03 | 42.71594 | -73.95513 | 39872 ft | 408 kts | 243° |
| 2026-05-06 03:04 | 42.68557 | -74.01997 | 39883 ft | 408 kts | 243° |
| 2026-05-06 03:04 | 42.65506 | -74.08497 | 39883 ft | 408 kts | 243° |
| 2026-05-06 03:05 | 42.62438 | -74.15021 | 39871 ft | 408 kts | 243° |
| 2026-05-06 03:05 | 42.59379 | -74.21510 | 39878 ft | 408 kts | 244° |
| 2026-05-06 03:06 | 42.56311 | -74.28004 | 39896 ft | 407 kts | 243° |
| 2026-05-06 03:06 | 42.53243 | -74.34484 | 39885 ft | 408 kts | 243° |
| 2026-05-06 03:07 | 42.50191 | -74.40916 | 39899 ft | 408 kts | 244° |
| 2026-05-06 03:07 | 42.47098 | -74.47421 | 39895 ft | 409 kts | 244° |
| 2026-05-06 03:08 | 42.44009 | -74.53903 | 39899 ft | 409 kts | 244° |
| 2026-05-06 03:08 | 42.40925 | -74.60362 | 39907 ft | 409 kts | 243° |
| 2026-05-06 03:09 | 42.37927 | -74.66627 | 39890 ft | 410 kts | 243° |
| 2026-05-06 03:09 | 42.34810 | -74.73130 | 39882 ft | 411 kts | 243° |
| 2026-05-06 03:10 | 42.31691 | -74.79617 | 39887 ft | 411 kts | 243° |
| 2026-05-06 03:10 | 42.28567 | -74.86104 | 39890 ft | 410 kts | 243° |
| 2026-05-06 03:11 | 42.25437 | -74.92587 | 39895 ft | 409 kts | 243° |
| 2026-05-06 03:11 | 42.22317 | -74.99037 | 39890 ft | 409 kts | 243° |
| 2026-05-06 03:12 | 42.19185 | -75.05498 | 39897 ft | 410 kts | 243° |
| 2026-05-06 03:12 | 42.16047 | -75.11956 | 39890 ft | 409 kts | 243° |
| 2026-05-06 03:13 | 42.12925 | -75.18368 | 39889 ft | 409 kts | 243° |
| 2026-05-06 03:13 | 42.09787 | -75.24800 | 39890 ft | 409 kts | 243° |
| 2026-05-06 03:14 | 42.06679 | -75.31164 | 39886 ft | 409 kts | 244° |
| 2026-05-06 03:14 | 42.03781 | -75.37775 | 39883 ft | 405 kts | 247° |
| 2026-05-06 03:15 | 42.01057 | -75.44343 | 39881 ft | 404 kts | 248° |
| 2026-05-06 03:15 | 41.98299 | -75.50960 | 39881 ft | 404 kts | 248° |
| 2026-05-06 03:16 | 41.95546 | -75.57538 | 39883 ft | 403 kts | 248° |
| 2026-05-06 03:16 | 41.92781 | -75.64121 | 39887 ft | 403 kts | 248° |
| 2026-05-06 03:17 | 41.90020 | -75.70679 | 39890 ft | 404 kts | 247° |
| 2026-05-06 03:17 | 41.87376 | -75.76945 | 39895 ft | 403 kts | 248° |
| 2026-05-06 03:18 | 41.84604 | -75.83487 | 39892 ft | 402 kts | 248° |
| 2026-05-06 03:18 | 41.81814 | -75.90056 | 39894 ft | 402 kts | 248° |
| 2026-05-06 03:19 | 41.79037 | -75.96577 | 39899 ft | 401 kts | 248° |
| 2026-05-06 03:19 | 41.76258 | -76.03091 | 39897 ft | 401 kts | 248° |
| 2026-05-06 03:20 | 41.72099 | -76.12807 | 39901 ft | 400 kts | 248° |
| 2026-05-06 03:20 | 41.69339 | -76.19235 | 39890 ft | 399 kts | 248° |
| 2026-05-06 03:21 | 41.66552 | -76.25713 | 39895 ft | 398 kts | 248° |
| 2026-05-06 03:21 | 41.63768 | -76.32172 | 39899 ft | 397 kts | 248° |
| 2026-05-06 03:22 | 41.61007 | -76.38563 | 39901 ft | 396 kts | 249° |
| 2026-05-06 03:22 | 41.58227 | -76.44985 | 39903 ft | 397 kts | 249° |
| 2026-05-06 03:23 | 41.55452 | -76.51379 | 39905 ft | 397 kts | 249° |
| 2026-05-06 03:23 | 41.52675 | -76.57765 | 39898 ft | 396 kts | 249° |
| 2026-05-06 03:24 | 41.49872 | -76.64195 | 39898 ft | 395 kts | 249° |
| 2026-05-06 03:24 | 41.47112 | -76.70515 | 39883 ft | 395 kts | 249° |
| 2026-05-06 03:25 | 41.44335 | -76.76859 | 39889 ft | 395 kts | 249° |
| 2026-05-06 03:25 | 41.41559 | -76.83189 | 39873 ft | 395 kts | 249° |
| 2026-05-06 03:26 | 41.38791 | -76.89485 | 39872 ft | 394 kts | 249° |
| 2026-05-06 03:26 | 41.36022 | -76.95770 | 39870 ft | 394 kts | 249° |
| 2026-05-06 03:27 | 41.33242 | -77.02070 | 39871 ft | 395 kts | 249° |
| 2026-05-06 03:27 | 41.30451 | -77.08384 | 39868 ft | 395 kts | 249° |
| 2026-05-06 03:28 | 41.27667 | -77.14665 | 39860 ft | 393 kts | 249° |
| 2026-05-06 03:28 | 41.24890 | -77.20915 | 39870 ft | 393 kts | 249° |
| 2026-05-06 03:29 | 41.22089 | -77.27210 | 39868 ft | 394 kts | 249° |
| 2026-05-06 03:29 | 41.19262 | -77.33551 | 39872 ft | 394 kts | 249° |
| 2026-05-06 03:30 | 41.16463 | -77.39816 | 39821 ft | 396 kts | 249° |
| 2026-05-06 03:30 | 41.15031 | -77.43030 | 39347 ft | 404 kts | 249° |
| 2026-05-06 03:30 | 41.13593 | -77.46241 | 38872 ft | 402 kts | 249° |
| 2026-05-06 03:31 | 41.12168 | -77.49412 | 38383 ft | 400 kts | 249° |
| 2026-05-06 03:31 | 41.10768 | -77.52530 | 37859 ft | 398 kts | 248° |
| 2026-05-06 03:31 | 41.09342 | -77.55706 | 37340 ft | 398 kts | 248° |
| 2026-05-06 03:31 | 41.07930 | -77.58845 | 36808 ft | 398 kts | 248° |
| 2026-05-06 03:32 | 41.06511 | -77.62001 | 36286 ft | 398 kts | 248° |
| 2026-05-06 03:32 | 41.05086 | -77.65169 | 35742 ft | 400 kts | 246° |
| 2026-05-06 03:32 | 41.03667 | -77.68319 | 35221 ft | 402 kts | 247° |
| 2026-05-06 03:32 | 41.02231 | -77.71506 | 34685 ft | 405 kts | 246° |
| 2026-05-06 03:33 | 41.00776 | -77.74731 | 34135 ft | 406 kts | 246° |
| 2026-05-06 03:33 | 40.99319 | -77.77955 | 33601 ft | 407 kts | 245° |
| 2026-05-06 03:33 | 40.97880 | -77.81138 | 33055 ft | 407 kts | 245° |
| 2026-05-06 03:33 | 40.96426 | -77.84344 | 32519 ft | 403 kts | 244° |
| 2026-05-06 03:34 | 40.94984 | -77.87522 | 31977 ft | 401 kts | 245° |
| 2026-05-06 03:34 | 40.93541 | -77.90701 | 31449 ft | 398 kts | 244° |
| 2026-05-06 03:34 | 40.92112 | -77.93845 | 30920 ft | 395 kts | 244° |
| 2026-05-06 03:34 | 40.90715 | -77.96913 | 30394 ft | 392 kts | 243° |
| 2026-05-06 03:35 | 40.89299 | -78.00019 | 29887 ft | 387 kts | 243° |
| 2026-05-06 03:35 | 40.87912 | -78.03052 | 29364 ft | 384 kts | 243° |
| 2026-05-06 03:35 | 40.86531 | -78.06075 | 28848 ft | 381 kts | 243° |
| 2026-05-06 03:35 | 40.85178 | -78.09038 | 28354 ft | 378 kts | 243° |
| 2026-05-06 03:36 | 40.83808 | -78.12033 | 27844 ft | 375 kts | 242° |
| 2026-05-06 03:36 | 40.82459 | -78.14977 | 27363 ft | 373 kts | 242° |
| 2026-05-06 03:36 | 40.81125 | -78.17888 | 26862 ft | 371 kts | 242° |
| 2026-05-06 03:36 | 40.79804 | -78.20769 | 26384 ft | 368 kts | 242° |
| 2026-05-06 03:37 | 40.78481 | -78.23648 | 25890 ft | 365 kts | 242° |
| 2026-05-06 03:37 | 40.77162 | -78.26517 | 25411 ft | 362 kts | 242° |
| 2026-05-06 03:37 | 40.75855 | -78.29358 | 24936 ft | 360 kts | 242° |
| 2026-05-06 03:37 | 40.74573 | -78.32146 | 24455 ft | 359 kts | 242° |
| 2026-05-06 03:38 | 40.73273 | -78.34966 | 23986 ft | 357 kts | 242° |
| 2026-05-06 03:38 | 40.71990 | -78.37753 | 23507 ft | 354 kts | 242° |
| 2026-05-06 03:38 | 40.70728 | -78.40486 | 23044 ft | 351 kts | 241° |
| 2026-05-06 03:38 | 40.69445 | -78.43266 | 22573 ft | 349 kts | 242° |
| 2026-05-06 03:39 | 40.68196 | -78.45967 | 22115 ft | 347 kts | 242° |
| 2026-05-06 03:39 | 40.66953 | -78.48654 | 21659 ft | 344 kts | 242° |
| 2026-05-06 03:39 | 40.65700 | -78.51357 | 21214 ft | 342 kts | 242° |
| 2026-05-06 03:39 | 40.64470 | -78.54012 | 20762 ft | 340 kts | 241° |
| 2026-05-06 03:40 | 40.63236 | -78.56670 | 20302 ft | 337 kts | 242° |
| 2026-05-06 03:40 | 40.62009 | -78.59312 | 19866 ft | 336 kts | 241° |
| 2026-05-06 03:40 | 40.60806 | -78.61900 | 19424 ft | 333 kts | 241° |
| 2026-05-06 03:40 | 40.59605 | -78.64481 | 18986 ft | 331 kts | 242° |
| 2026-05-06 03:41 | 40.58399 | -78.67070 | 18549 ft | 329 kts | 241° |
| 2026-05-06 03:41 | 40.57211 | -78.69619 | 18118 ft | 326 kts | 241° |
| 2026-05-06 03:41 | 40.56020 | -78.72173 | 17686 ft | 326 kts | 241° |
| 2026-05-06 03:41 | 40.54876 | -78.74714 | 17426 ft | 323 kts | 245° |
| 2026-05-06 03:42 | 40.54096 | -78.77444 | 16915 ft | 321 kts | 255° |
| 2026-05-06 03:42 | 40.53551 | -78.80239 | 16491 ft | 311 kts | 256° |
| 2026-05-06 03:42 | 40.53016 | -78.82964 | 16086 ft | 303 kts | 255° |
| 2026-05-06 03:42 | 40.52488 | -78.85623 | 15693 ft | 295 kts | 255° |
| 2026-05-06 03:43 | 40.51975 | -78.88202 | 15291 ft | 287 kts | 255° |
| 2026-05-06 03:43 | 40.51474 | -78.90701 | 14932 ft | 280 kts | 255° |
| 2026-05-06 03:43 | 40.50984 | -78.93133 | 14558 ft | 273 kts | 255° |
| 2026-05-06 03:43 | 40.50506 | -78.95495 | 14221 ft | 266 kts | 255° |
| 2026-05-06 03:44 | 40.50032 | -78.97829 | 13866 ft | 261 kts | 255° |
| 2026-05-06 03:44 | 40.49564 | -79.00127 | 13510 ft | 257 kts | 255° |
| 2026-05-06 03:44 | 40.49106 | -79.02365 | 13167 ft | 252 kts | 255° |
| 2026-05-06 03:44 | 40.48650 | -79.04589 | 12849 ft | 248 kts | 254° |
| 2026-05-06 03:45 | 40.48208 | -79.06743 | 12506 ft | 244 kts | 254° |
| 2026-05-06 03:45 | 40.47765 | -79.08890 | 12189 ft | 241 kts | 253° |
| 2026-05-06 03:45 | 40.47334 | -79.10979 | 11869 ft | 237 kts | 253° |
| 2026-05-06 03:45 | 40.46903 | -79.13065 | 11555 ft | 234 kts | 252° |
| 2026-05-06 03:46 | 40.46477 | -79.15122 | 11231 ft | 231 kts | 252° |
| 2026-05-06 03:46 | 40.46056 | -79.17150 | 10934 ft | 229 kts | 252° |
| 2026-05-06 03:46 | 40.45636 | -79.19174 | 10625 ft | 229 kts | 252° |
| 2026-05-06 03:46 | 40.45219 | -79.21179 | 10325 ft | 230 kts | 252° |
| 2026-05-06 03:47 | 40.44796 | -79.23219 | 10022 ft | 229 kts | 251° |
| 2026-05-06 03:47 | 40.44376 | -79.25237 | 9706 ft | 228 kts | 251° |
| 2026-05-06 03:47 | 40.43971 | -79.27241 | 9401 ft | 225 kts | 253° |
| 2026-05-06 03:47 | 40.43596 | -79.29212 | 9100 ft | 220 kts | 252° |
| 2026-05-06 03:48 | 40.43185 | -79.31152 | 8828 ft | 224 kts | 251° |
| 2026-05-06 03:48 | 40.42783 | -79.33192 | 8549 ft | 230 kts | 254° |
| 2026-05-06 03:48 | 40.42386 | -79.35199 | 8214 ft | 225 kts | 251° |
| 2026-05-06 03:48 | 40.41965 | -79.37151 | 7935 ft | 219 kts | 251° |
| 2026-05-06 03:49 | 40.41550 | -79.39087 | 7632 ft | 218 kts | 251° |
| 2026-05-06 03:49 | 40.41142 | -79.40984 | 7342 ft | 218 kts | 251° |
| 2026-05-06 03:49 | 40.40731 | -79.42899 | 7067 ft | 217 kts | 252° |
| 2026-05-06 03:49 | 40.40321 | -79.44822 | 6761 ft | 217 kts | 251° |
| 2026-05-06 03:50 | 40.39914 | -79.46732 | 6486 ft | 216 kts | 251° |
| 2026-05-06 03:50 | 40.39509 | -79.48634 | 6194 ft | 215 kts | 251° |
| 2026-05-06 03:50 | 40.39113 | -79.50496 | 5929 ft | 215 kts | 251° |
| 2026-05-06 03:50 | 40.38705 | -79.52410 | 5614 ft | 215 kts | 252° |
| 2026-05-06 03:51 | 40.38305 | -79.54293 | 5349 ft | 214 kts | 252° |
| 2026-05-06 03:51 | 40.37904 | -79.56178 | 5059 ft | 216 kts | 252° |
| 2026-05-06 03:51 | 40.37503 | -79.58064 | 4784 ft | 217 kts | 252° |
| 2026-05-06 03:51 | 40.37099 | -79.59970 | 4469 ft | 218 kts | 252° |
| 2026-05-06 03:52 | 40.36697 | -79.61900 | 4131 ft | 215 kts | 252° |
| 2026-05-06 03:52 | 40.36303 | -79.63763 | 3800 ft | 212 kts | 252° |
| 2026-05-06 03:52 | 40.35896 | -79.65621 | 3457 ft | 210 kts | 251° |
| 2026-05-06 03:52 | 40.35491 | -79.67457 | 3158 ft | 204 kts | 251° |
| 2026-05-06 03:53 | 40.35127 | -79.69132 | 3158 ft | 177 kts | 251° |
| 2026-05-06 03:53 | 40.34843 | -79.70620 | 3043 ft | 161 kts | 257° |
| 2026-05-06 03:53 | 40.34777 | -79.72042 | 3002 ft | 156 kts | 267° |
| 2026-05-06 03:53 | 40.34857 | -79.73464 | 3002 ft | 155 kts | 271° |
| 2026-05-06 03:54 | 40.34978 | -79.74812 | 3035 ft | 136 kts | 271° |
| 2026-05-06 03:54 | 40.35070 | -79.76019 | 3052 ft | 129 kts | 268° |
| 2026-05-06 03:54 | 40.35123 | -79.77171 | 2999 ft | 124 kts | 266° |
| 2026-05-06 03:54 | 40.35164 | -79.78287 | 2988 ft | 122 kts | 268° |
| 2026-05-06 03:55 | 40.35221 | -79.79417 | 3019 ft | 119 kts | 269° |
| 2026-05-06 03:55 | 40.35277 | -79.80511 | 2959 ft | 121 kts | 266° |
| 2026-05-06 03:55 | 40.35309 | -79.81650 | 2812 ft | 127 kts | 267° |
| 2026-05-06 03:55 | 40.35345 | -79.82769 | 2614 ft | 122 kts | 265° |
| 2026-05-06 03:56 | 40.35374 | -79.83894 | 2398 ft | 120 kts | 263° |
| 2026-05-06 03:56 | 40.35398 | -79.85017 | 2234 ft | 124 kts | 266° |
| 2026-05-06 03:56 | 40.35404 | -79.86195 | 2116 ft | 129 kts | 266° |
| 2026-05-06 03:56 | 40.35423 | -79.87347 | 1935 ft | 124 kts | 266° |
| 2026-05-06 03:57 | 40.35436 | -79.88426 | 1768 ft | 123 kts | 265° |
| 2026-05-06 03:57 | 40.35435 | -79.89618 | 1617 ft | 130 kts | 266° |
| 2026-05-06 03:57 | 40.35434 | -79.90821 | 1452 ft | 130 kts | 266° |
| 2026-05-06 03:57 | 40.35433 | -79.92004 | 1282 ft | 127 kts | 268° |
| 2026-05-06 03:58 | 40.35435 | -79.93050 | 1256 ft | 103 kts | 269° |
| 2026-05-06 03:58 | 40.35430 | -79.94250 | 1663 ft | 152 kts | 266° |
| 2026-05-06 03:58 | 40.35437 | -79.95753 | 2461 ft | 192 kts | 268° |
| 2026-05-06 03:58 | 40.35482 | -79.97369 | 3320 ft | 184 kts | 268° |
| 2026-05-06 03:59 | 40.35564 | -79.99138 | 3564 ft | 198 kts | 269° |
| 2026-05-06 03:59 | 40.35704 | -80.00936 | 4001 ft | 189 kts | 269° |
| 2026-05-06 03:59 | 40.35823 | -80.02591 | 3867 ft | 201 kts | 269° |
| 2026-05-06 03:59 | 40.35902 | -80.04523 | 3553 ft | 217 kts | 262° |
| 2026-05-06 04:00 | 40.35376 | -80.06356 | 3280 ft | 215 kts | 229° |
| 2026-05-06 04:00 | 40.34108 | -80.07284 | 3359 ft | 222 kts | 192° |
| 2026-05-06 04:00 | 40.32554 | -80.06961 | 3267 ft | 232 kts | 158° |
| 2026-05-06 04:00 | 40.31209 | -80.05605 | 2832 ft | 249 kts | 140° |
| 2026-05-06 04:01 | 40.30176 | -80.03848 | 2649 ft | 245 kts | 117° |
| 2026-05-06 04:01 | 40.29931 | -80.01630 | 2776 ft | 251 kts | 93° |
| 2026-05-06 04:01 | 40.30009 | -79.99323 | 2936 ft | 255 kts | 91° |
| 2026-05-06 04:01 | 40.30114 | -79.96989 | 3002 ft | 258 kts | 91° |
| 2026-05-06 04:02 | 40.30208 | -79.94613 | 2991 ft | 257 kts | 95° |
| 2026-05-06 04:02 | 40.30075 | -79.92282 | 2996 ft | 255 kts | 101° |
| 2026-05-06 04:02 | 40.29892 | -79.89978 | 3009 ft | 255 kts | 101° |
| 2026-05-06 04:02 | 40.29705 | -79.87684 | 3005 ft | 255 kts | 101° |
| 2026-05-06 04:03 | 40.29521 | -79.85358 | 3008 ft | 255 kts | 101° |
| 2026-05-06 04:03 | 40.29340 | -79.83062 | 3016 ft | 247 kts | 101° |
| 2026-05-06 04:03 | 40.29184 | -79.80899 | 3037 ft | 226 kts | 101° |
| 2026-05-06 04:03 | 40.29059 | -79.78952 | 3038 ft | 213 kts | 100° |
| 2026-05-06 04:04 | 40.28927 | -79.77011 | 3018 ft | 213 kts | 101° |
| 2026-05-06 04:04 | 40.28790 | -79.75066 | 3002 ft | 212 kts | 101° |
| 2026-05-06 04:04 | 40.28658 | -79.73145 | 3000 ft | 212 kts | 101° |
| 2026-05-06 04:04 | 40.28531 | -79.71248 | 3005 ft | 203 kts | 101° |
| 2026-05-06 04:05 | 40.28494 | -79.69476 | 3028 ft | 188 kts | 86° |
| 2026-05-06 04:05 | 40.29138 | -79.68006 | 3008 ft | 192 kts | 38° |
| 2026-05-06 04:05 | 40.30361 | -79.67428 | 3023 ft | 186 kts | 3° |
| 2026-05-06 04:05 | 40.31639 | -79.67394 | 3016 ft | 181 kts | 340° |
| 2026-05-06 04:06 | 40.32630 | -79.68259 | 3017 ft | 167 kts | 304° |
| 2026-05-06 04:06 | 40.33354 | -79.69443 | 3024 ft | 166 kts | 302° |
| 2026-05-06 04:06 | 40.34034 | -79.70604 | 2985 ft | 153 kts | 301° |
| 2026-05-06 04:06 | 40.34671 | -79.71679 | 3011 ft | 147 kts | 297° |
| 2026-05-06 04:07 | 40.35129 | -79.72834 | 3015 ft | 135 kts | 281° |
| 2026-05-06 04:07 | 40.35292 | -79.74020 | 3013 ft | 126 kts | 267° |
| 2026-05-06 04:07 | 40.35260 | -79.75146 | 3016 ft | 122 kts | 259° |
| 2026-05-06 04:07 | 40.35170 | -79.76225 | 3002 ft | 119 kts | 258° |
| 2026-05-06 04:08 | 40.35100 | -79.77316 | 2994 ft | 119 kts | 261° |
| 2026-05-06 04:08 | 40.35085 | -79.78400 | 2997 ft | 119 kts | 264° |
| 2026-05-06 04:08 | 40.35115 | -79.79494 | 3010 ft | 120 kts | 267° |
| 2026-05-06 04:08 | 40.35164 | -79.80611 | 2883 ft | 122 kts | 267° |
| 2026-05-06 04:09 | 40.35210 | -79.81709 | 2746 ft | 121 kts | 267° |
| 2026-05-06 04:09 | 40.35244 | -79.82815 | 2574 ft | 121 kts | 266° |
| 2026-05-06 04:09 | 40.35271 | -79.83926 | 2425 ft | 122 kts | 267° |
| 2026-05-06 04:09 | 40.35296 | -79.85033 | 2270 ft | 122 kts | 267° |
| 2026-05-06 04:10 | 40.35323 | -79.86150 | 2112 ft | 122 kts | 268° |
| 2026-05-06 04:10 | 40.35352 | -79.87277 | 1942 ft | 123 kts | 268° |
| 2026-05-06 04:10 | 40.35376 | -79.88412 | 1787 ft | 126 kts | 267° |
| 2026-05-06 04:10 | 40.35392 | -79.89557 | 1639 ft | 129 kts | 268° |
| 2026-05-06 04:11 | 40.35420 | -79.90727 | 1466 ft | 131 kts | 269° |
| 2026-05-06 04:11 | 40.35435 | -79.91891 | 1286 ft | 125 kts | 269° |
| 2026-05-06 04:11 | 40.35435 | -79.92917 | 1256 ft | 100 kts | 269° |
| 2026-05-06 04:11 | 40.35430 | -79.93578 | 1256 ft | 40 kts | 270° |
| 2026-05-06 04:12 | 40.35427 | -79.93748 | 1255 ft | 5 kts | 234° |
| 2026-05-06 04:12 | 40.35384 | -79.93742 | 1255 ft | 4 kts | 174° |
| 2026-05-06 04:12 | 40.35345 | -79.93729 | 1255 ft | 7 kts | 108° |
| 2026-05-06 04:12 | 40.35347 | -79.93670 | 1255 ft | 8 kts | 89° |
| 2026-05-06 04:13 | 40.35347 | -79.93569 | 1255 ft | 12 kts | 89° |
| 2026-05-06 04:13 | 40.35347 | -79.93514 | 1255 ft | 6 kts | 89° |
| 2026-05-06 04:13 | 40.35348 | -79.93432 | 1255 ft | 11 kts | 89° |
| 2026-05-06 04:13 | 40.35348 | -79.93314 | 1255 ft | 14 kts | 89° |
| 2026-05-06 04:14 | 40.35348 | -79.93200 | 1255 ft | 12 kts | 91° |
| 2026-05-06 04:14 | 40.35348 | -79.93155 | 1255 ft | 2 kts | 90° |
| 2026-05-06 04:14 | 40.35348 | -79.93112 | 1255 ft | 5 kts | 91° |
| 2026-05-06 04:14 | 40.35328 | -79.93080 | 1255 ft | 6 kts | 174° |
| 2026-05-06 04:15 | 40.35292 | -79.93039 | 1255 ft | 10 kts | 83° |
| 2026-05-06 04:15 | 40.35298 | -79.92943 | 1255 ft | 7 kts | 86° |
| 2026-05-06 04:15 | 40.35308 | -79.92858 | 1255 ft | 10 kts | 81° |
| 2026-05-06 04:15 | 40.35311 | -79.92806 | 1255 ft | 2 kts | 89° |
| 2026-05-06 04:16 | 40.35309 | -79.92771 | 1255 ft | 4 kts | 122° |
| 2026-05-06 04:16 | 40.35289 | -79.92760 | 1255 ft | 0 kts | 162° |
| 2026-05-06 04:16 | 40.35284 | -79.92758 | 1255 ft | 0 kts | 162° |